Terminal Aerodrome Forecast
Issued by NWS Grand Rapids, MI

Home | Current Version | Previous Version | Text Only | Print | Product List | Glossary On
Versions: 1 2 3 4 5 6 7 8 9 10 11 12 13 14 15
000
FTUS43 KGRR 201721
TAFGRR
TAF
KGRR 201721Z 2018/2118 23008KT P6SM BKN180 BKN250
     FM210000 15006KT P6SM BKN140 BKN250
     FM211400 20008KT P6SM OVC100
     FM211700 22008KT P6SM VCTS BKN070CB BKN150=

USA.gov is the U.S. government's official web portal to all federal, state and local government web resources and services.